sensor_id;sensor_type;location;lat;lon;timestamp;P1;durP1;ratioP1;P2;durP2;ratioP2
45836;SDS011;31548;51.420;-0.040;2023-07-31T00:00:54;7.00;;;1.80;;
45836;SDS011;31548;51.420;-0.040;2023-07-31T00:03:21;10.30;;;2.17;;
45836;SDS011;31548;51.420;-0.040;2023-07-31T00:05:48;9.95;;;2.03;;
45836;SDS011;31548;51.420;-0.040;2023-07-31T00:08:16;6.35;;;1.60;;
45836;SDS011;31548;51.420;-0.040;2023-07-31T00:10:43;7.97;;;1.52;;
45836;SDS011;31548;51.420;-0.040;2023-07-31T00:13:10;5.70;;;1.10;;
45836;SDS011;31548;51.420;-0.040;2023-07-31T00:15:38;7.63;;;1.77;;
45836;SDS011;31548;51.420;-0.040;2023-07-31T00:18:06;4.90;;;1.15;;
45836;SDS011;31548;51.420;-0.040;2023-07-31T00:20:33;4.55;;;1.10;;
45836;SDS011;31548;51.420;-0.040;2023-07-31T00:23:00;3.05;;;0.95;;
45836;SDS011;31548;51.420;-0.040;2023-07-31T00:25:28;6.78;;;1.23;;
45836;SDS011;31548;51.420;-0.040;2023-07-31T00:27:55;4.75;;;0.70;;
45836;SDS011;31548;51.420;-0.040;2023-07-31T00:30:23;3.17;;;0.82;;
45836;SDS011;31548;51.420;-0.040;2023-07-31T00:32:53;2.80;;;0.80;;
45836;SDS011;31548;51.420;-0.040;2023-07-31T00:35:20;2.72;;;0.85;;
45836;SDS011;31548;51.420;-0.040;2023-07-31T00:37:48;3.05;;;0.50;;
45836;SDS011;31548;51.420;-0.040;2023-07-31T00:40:15;1.63;;;0.60;;
45836;SDS011;31548;51.420;-0.040;2023-07-31T00:42:43;2.15;;;0.68;;
45836;SDS011;31548;51.420;-0.040;2023-07-31T00:45:10;3.80;;;0.60;;
45836;SDS011;31548;51.420;-0.040;2023-07-31T00:47:37;3.97;;;0.82;;
45836;SDS011;31548;51.420;-0.040;2023-07-31T00:50:05;2.03;;;0.50;;
45836;SDS011;31548;51.420;-0.040;2023-07-31T00:52:34;1.30;;;0.50;;
45836;SDS011;31548;51.420;-0.040;2023-07-31T00:55:03;3.40;;;0.52;;
45836;SDS011;31548;51.420;-0.040;2023-07-31T00:57:31;2.60;;;0.50;;
45836;SDS011;31548;51.420;-0.040;2023-07-31T01:00:00;3.35;;;0.50;;
45836;SDS011;31548;51.420;-0.040;2023-07-31T01:02:27;2.55;;;0.40;;
45836;SDS011;31548;51.420;-0.040;2023-07-31T01:04:56;3.05;;;0.70;;
45836;SDS011;31548;51.420;-0.040;2023-07-31T01:10:18;0.75;;;0.40;;
45836;SDS011;31548;51.420;-0.040;2023-07-31T01:12:50;1.98;;;0.38;;
45836;SDS011;31548;51.420;-0.040;2023-07-31T01:15:18;1.80;;;0.30;;
45836;SDS011;31548;51.420;-0.040;2023-07-31T01:17:46;2.08;;;0.20;;
45836;SDS011;31548;51.420;-0.040;2023-07-31T01:20:23;0.32;;;0.15;;
45836;SDS011;31548;51.420;-0.040;2023-07-31T01:31:41;0.20;;;0.20;;
45836;SDS011;31548;51.420;-0.040;2023-07-31T01:34:10;0.45;;;0.15;;
45836;SDS011;31548;51.420;-0.040;2023-07-31T01:36:39;0.70;;;0.10;;
45836;SDS011;31548;51.420;-0.040;2023-07-31T01:39:07;0.88;;;0.30;;
45836;SDS011;31548;51.420;-0.040;2023-07-31T01:41:34;0.40;;;0.20;;
45836;SDS011;31548;51.420;-0.040;2023-07-31T01:44:02;0.40;;;0.20;;
45836;SDS011;31548;51.420;-0.040;2023-07-31T01:46:29;0.95;;;0.38;;
45836;SDS011;31548;51.420;-0.040;2023-07-31T01:48:57;1.20;;;0.17;;
45836;SDS011;31548;51.420;-0.040;2023-07-31T01:51:24;1.45;;;0.10;;
45836;SDS011;31548;51.420;-0.040;2023-07-31T01:53:51;2.30;;;0.30;;
45836;SDS011;31548;51.420;-0.040;2023-07-31T01:56:19;0.30;;;0.20;;
45836;SDS011;31548;51.420;-0.040;2023-07-31T01:58:46;0.40;;;0.30;;
45836;SDS011;31548;51.420;-0.040;2023-07-31T02:01:14;0.70;;;0.30;;
45836;SDS011;31548;51.420;-0.040;2023-07-31T02:03:41;0.50;;;0.32;;
45836;SDS011;31548;51.420;-0.040;2023-07-31T02:06:09;0.57;;;0.30;;
45836;SDS011;31548;51.420;-0.040;2023-07-31T02:08:36;0.57;;;0.40;;
45836;SDS011;31548;51.420;-0.040;2023-07-31T02:11:04;1.83;;;0.30;;
45836;SDS011;31548;51.420;-0.040;2023-07-31T02:13:32;0.95;;;0.40;;
45836;SDS011;31548;51.420;-0.040;2023-07-31T02:16:00;1.05;;;0.32;;
45836;SDS011;31548;51.420;-0.040;2023-07-31T02:18:28;2.78;;;0.40;;
45836;SDS011;31548;51.420;-0.040;2023-07-31T02:20:55;0.30;;;0.30;;
45836;SDS011;31548;51.420;-0.040;2023-07-31T02:23:23;2.83;;;0.40;;
45836;SDS011;31548;51.420;-0.040;2023-07-31T02:25:50;0.25;;;0.20;;
45836;SDS011;31548;51.420;-0.040;2023-07-31T02:28:17;0.40;;;0.30;;
45836;SDS011;31548;51.420;-0.040;2023-07-31T02:30:45;0.57;;;0.40;;
45836;SDS011;31548;51.420;-0.040;2023-07-31T02:33:15;1.30;;;0.32;;
45836;SDS011;31548;51.420;-0.040;2023-07-31T02:35:43;1.38;;;0.45;;
45836;SDS011;31548;51.420;-0.040;2023-07-31T02:38:10;3.08;;;0.30;;
45836;SDS011;31548;51.420;-0.040;2023-07-31T02:40:38;2.90;;;0.35;;
45836;SDS011;31548;51.420;-0.040;2023-07-31T02:43:08;1.85;;;0.35;;
45836;SDS011;31548;51.420;-0.040;2023-07-31T02:45:35;0.45;;;0.30;;
45836;SDS011;31548;51.420;-0.040;2023-07-31T02:48:03;0.63;;;0.20;;
45836;SDS011;31548;51.420;-0.040;2023-07-31T02:50:31;1.10;;;0.30;;
45836;SDS011;31548;51.420;-0.040;2023-07-31T02:52:59;2.25;;;0.47;;
45836;SDS011;31548;51.420;-0.040;2023-07-31T02:55:26;1.10;;;0.30;;
45836;SDS011;31548;51.420;-0.040;2023-07-31T02:57:54;2.42;;;0.30;;
45836;SDS011;31548;51.420;-0.040;2023-07-31T03:00:21;2.80;;;0.40;;
45836;SDS011;31548;51.420;-0.040;2023-07-31T03:02:48;2.10;;;0.22;;
45836;SDS011;31548;51.420;-0.040;2023-07-31T03:05:16;1.05;;;0.30;;
45836;SDS011;31548;51.420;-0.040;2023-07-31T03:07:44;3.45;;;0.40;;
45836;SDS011;31548;51.420;-0.040;2023-07-31T03:10:11;0.93;;;0.20;;
45836;SDS011;31548;51.420;-0.040;2023-07-31T03:12:39;0.65;;;0.30;;
45836;SDS011;31548;51.420;-0.040;2023-07-31T03:15:07;2.40;;;0.30;;
45836;SDS011;31548;51.420;-0.040;2023-07-31T03:17:35;0.88;;;0.40;;
45836;SDS011;31548;51.420;-0.040;2023-07-31T03:20:03;0.80;;;0.35;;
45836;SDS011;31548;51.420;-0.040;2023-07-31T03:22:30;0.80;;;0.30;;
45836;SDS011;31548;51.420;-0.040;2023-07-31T03:24:58;1.13;;;0.30;;
45836;SDS011;31548;51.420;-0.040;2023-07-31T03:27:25;0.70;;;0.30;;
45836;SDS011;31548;51.420;-0.040;2023-07-31T03:29:53;1.10;;;0.32;;
45836;SDS011;31548;51.420;-0.040;2023-07-31T03:32:20;0.32;;;0.20;;
45836;SDS011;31548;51.420;-0.040;2023-07-31T03:34:49;1.27;;;0.20;;
45836;SDS011;31548;51.420;-0.040;2023-07-31T03:37:16;2.83;;;0.30;;
45836;SDS011;31548;51.420;-0.040;2023-07-31T03:39:43;0.55;;;0.10;;
45836;SDS011;31548;51.420;-0.040;2023-07-31T03:42:11;3.70;;;0.43;;
45836;SDS011;31548;51.420;-0.040;2023-07-31T03:44:38;1.05;;;0.22;;
45836;SDS011;31548;51.420;-0.040;2023-07-31T03:47:05;1.85;;;0.20;;
45836;SDS011;31548;51.420;-0.040;2023-07-31T03:49:33;0.73;;;0.20;;
45836;SDS011;31548;51.420;-0.040;2023-07-31T03:52:00;1.15;;;0.20;;
45836;SDS011;31548;51.420;-0.040;2023-07-31T03:54:28;1.92;;;0.30;;
45836;SDS011;31548;51.420;-0.040;2023-07-31T03:56:55;1.15;;;0.20;;
45836;SDS011;31548;51.420;-0.040;2023-07-31T03:59:22;0.45;;;0.10;;
45836;SDS011;31548;51.420;-0.040;2023-07-31T04:01:50;0.28;;;0.17;;
45836;SDS011;31548;51.420;-0.040;2023-07-31T04:04:17;1.05;;;0.20;;
45836;SDS011;31548;51.420;-0.040;2023-07-31T04:06:44;1.10;;;0.20;;
45836;SDS011;31548;51.420;-0.040;2023-07-31T04:09:12;1.20;;;0.32;;
45836;SDS011;31548;51.420;-0.040;2023-07-31T04:11:39;0.47;;;0.20;;
45836;SDS011;31548;51.420;-0.040;2023-07-31T04:14:07;0.30;;;0.20;;
45836;SDS011;31548;51.420;-0.040;2023-07-31T04:16:34;0.35;;;0.20;;
45836;SDS011;31548;51.420;-0.040;2023-07-31T04:19:01;2.38;;;0.20;;
45836;SDS011;31548;51.420;-0.040;2023-07-31T04:21:30;2.53;;;0.30;;
45836;SDS011;31548;51.420;-0.040;2023-07-31T04:23:57;0.88;;;0.17;;
45836;SDS011;31548;51.420;-0.040;2023-07-31T04:26:25;1.20;;;0.20;;
45836;SDS011;31548;51.420;-0.040;2023-07-31T04:28:52;0.30;;;0.20;;
45836;SDS011;31548;51.420;-0.040;2023-07-31T04:31:19;0.73;;;0.20;;
45836;SDS011;31548;51.420;-0.040;2023-07-31T04:33:47;5.03;;;0.30;;
45836;SDS011;31548;51.420;-0.040;2023-07-31T04:36:14;0.40;;;0.20;;
45836;SDS011;31548;51.420;-0.040;2023-07-31T04:38:42;0.95;;;0.20;;
45836;SDS011;31548;51.420;-0.040;2023-07-31T04:41:09;0.32;;;0.20;;
45836;SDS011;31548;51.420;-0.040;2023-07-31T04:43:36;1.85;;;0.30;;
45836;SDS011;31548;51.420;-0.040;2023-07-31T04:46:05;0.30;;;0.30;;
45836;SDS011;31548;51.420;-0.040;2023-07-31T04:48:33;1.95;;;0.30;;
45836;SDS011;31548;51.420;-0.040;2023-07-31T04:51:00;1.10;;;0.20;;
45836;SDS011;31548;51.420;-0.040;2023-07-31T04:53:28;2.15;;;0.20;;
45836;SDS011;31548;51.420;-0.040;2023-07-31T04:55:55;3.22;;;0.20;;
45836;SDS011;31548;51.420;-0.040;2023-07-31T04:58:22;0.63;;;0.10;;
45836;SDS011;31548;51.420;-0.040;2023-07-31T05:00:50;0.95;;;0.20;;
45836;SDS011;31548;51.420;-0.040;2023-07-31T05:03:17;0.60;;;0.20;;
45836;SDS011;31548;51.420;-0.040;2023-07-31T05:05:45;0.95;;;0.20;;
45836;SDS011;31548;51.420;-0.040;2023-07-31T05:08:12;1.10;;;0.28;;
45836;SDS011;31548;51.420;-0.040;2023-07-31T05:10:39;0.52;;;0.20;;
45836;SDS011;31548;51.420;-0.040;2023-07-31T05:13:07;0.63;;;0.15;;
45836;SDS011;31548;51.420;-0.040;2023-07-31T05:15:34;0.30;;;0.20;;
45836;SDS011;31548;51.420;-0.040;2023-07-31T05:18:01;0.77;;;0.28;;
45836;SDS011;31548;51.420;-0.040;2023-07-31T05:20:29;1.55;;;0.30;;
45836;SDS011;31548;51.420;-0.040;2023-07-31T05:22:56;2.83;;;0.20;;
45836;SDS011;31548;51.420;-0.040;2023-07-31T05:25:23;1.63;;;0.22;;
45836;SDS011;31548;51.420;-0.040;2023-07-31T05:27:51;0.90;;;0.20;;
45836;SDS011;31548;51.420;-0.040;2023-07-31T05:30:18;2.53;;;0.30;;
45836;SDS011;31548;51.420;-0.040;2023-07-31T05:32:46;0.60;;;0.22;;
45836;SDS011;31548;51.420;-0.040;2023-07-31T05:35:13;0.88;;;0.30;;
45836;SDS011;31548;51.420;-0.040;2023-07-31T05:37:40;2.55;;;0.20;;
45836;SDS011;31548;51.420;-0.040;2023-07-31T05:40:08;0.55;;;0.30;;
45836;SDS011;31548;51.420;-0.040;2023-07-31T05:42:35;0.20;;;0.20;;
45836;SDS011;31548;51.420;-0.040;2023-07-31T05:45:06;2.08;;;0.30;;
45836;SDS011;31548;51.420;-0.040;2023-07-31T05:47:34;0.52;;;0.20;;
45836;SDS011;31548;51.420;-0.040;2023-07-31T05:50:01;1.55;;;0.30;;
45836;SDS011;31548;51.420;-0.040;2023-07-31T05:52:28;0.75;;;0.30;;
45836;SDS011;31548;51.420;-0.040;2023-07-31T05:54:56;0.70;;;0.30;;
45836;SDS011;31548;51.420;-0.040;2023-07-31T05:57:23;2.30;;;0.30;;
45836;SDS011;31548;51.420;-0.040;2023-07-31T05:59:51;1.77;;;0.22;;
45836;SDS011;31548;51.420;-0.040;2023-07-31T06:02:20;2.05;;;0.40;;
45836;SDS011;31548;51.420;-0.040;2023-07-31T06:04:47;1.25;;;0.30;;
45836;SDS011;31548;51.420;-0.040;2023-07-31T06:07:14;2.15;;;0.30;;
45836;SDS011;31548;51.420;-0.040;2023-07-31T06:09:42;2.63;;;0.32;;
45836;SDS011;31548;51.420;-0.040;2023-07-31T06:12:09;1.33;;;0.30;;
45836;SDS011;31548;51.420;-0.040;2023-07-31T06:14:37;1.58;;;0.30;;
45836;SDS011;31548;51.420;-0.040;2023-07-31T06:17:04;1.83;;;0.30;;
45836;SDS011;31548;51.420;-0.040;2023-07-31T06:19:32;1.77;;;0.40;;
45836;SDS011;31548;51.420;-0.040;2023-07-31T06:21:59;2.03;;;0.30;;
45836;SDS011;31548;51.420;-0.040;2023-07-31T06:24:27;2.10;;;0.38;;
45836;SDS011;31548;51.420;-0.040;2023-07-31T06:26:55;3.60;;;0.43;;
45836;SDS011;31548;51.420;-0.040;2023-07-31T06:29:24;5.90;;;0.50;;
45836;SDS011;31548;51.420;-0.040;2023-07-31T06:31:51;2.72;;;0.30;;
45836;SDS011;31548;51.420;-0.040;2023-07-31T06:34:19;0.57;;;0.30;;
45836;SDS011;31548;51.420;-0.040;2023-07-31T06:36:46;2.08;;;0.40;;
45836;SDS011;31548;51.420;-0.040;2023-07-31T06:39:17;3.03;;;0.30;;
45836;SDS011;31548;51.420;-0.040;2023-07-31T06:41:44;2.75;;;0.50;;
45836;SDS011;31548;51.420;-0.040;2023-07-31T06:44:12;4.43;;;0.50;;
45836;SDS011;31548;51.420;-0.040;2023-07-31T06:46:39;3.33;;;0.45;;
45836;SDS011;31548;51.420;-0.040;2023-07-31T06:49:07;1.30;;;0.38;;
45836;SDS011;31548;51.420;-0.040;2023-07-31T06:51:35;1.35;;;0.30;;
45836;SDS011;31548;51.420;-0.040;2023-07-31T06:54:03;2.88;;;0.40;;
45836;SDS011;31548;51.420;-0.040;2023-07-31T06:56:30;3.65;;;0.30;;
45836;SDS011;31548;51.420;-0.040;2023-07-31T06:58:57;2.22;;;0.40;;
45836;SDS011;31548;51.420;-0.040;2023-07-31T07:01:25;1.60;;;0.40;;
45836;SDS011;31548;51.420;-0.040;2023-07-31T07:03:52;2.42;;;0.30;;
45836;SDS011;31548;51.420;-0.040;2023-07-31T07:06:21;1.27;;;0.30;;
45836;SDS011;31548;51.420;-0.040;2023-07-31T07:08:49;1.48;;;0.30;;
45836;SDS011;31548;51.420;-0.040;2023-07-31T07:11:16;3.97;;;0.30;;
45836;SDS011;31548;51.420;-0.040;2023-07-31T07:13:44;3.92;;;0.40;;
45836;SDS011;31548;51.420;-0.040;2023-07-31T07:16:11;2.28;;;0.20;;
45836;SDS011;31548;51.420;-0.040;2023-07-31T07:18:39;1.95;;;0.40;;
45836;SDS011;31548;51.420;-0.040;2023-07-31T07:21:19;4.28;;;0.40;;
45836;SDS011;31548;51.420;-0.040;2023-07-31T07:23:47;1.40;;;0.30;;
45836;SDS011;31548;51.420;-0.040;2023-07-31T07:26:14;2.25;;;0.40;;
45836;SDS011;31548;51.420;-0.040;2023-07-31T07:28:41;1.60;;;0.30;;
45836;SDS011;31548;51.420;-0.040;2023-07-31T07:31:12;0.40;;;0.30;;
45836;SDS011;31548;51.420;-0.040;2023-07-31T07:33:39;2.22;;;0.30;;
45836;SDS011;31548;51.420;-0.040;2023-07-31T07:36:07;1.30;;;0.30;;
45836;SDS011;31548;51.420;-0.040;2023-07-31T07:38:36;1.40;;;0.22;;
45836;SDS011;31548;51.420;-0.040;2023-07-31T07:41:05;2.30;;;0.30;;
45836;SDS011;31548;51.420;-0.040;2023-07-31T07:43:33;2.20;;;0.40;;
45836;SDS011;31548;51.420;-0.040;2023-07-31T07:46:00;1.80;;;0.40;;
45836;SDS011;31548;51.420;-0.040;2023-07-31T07:48:28;4.53;;;0.73;;
45836;SDS011;31548;51.420;-0.040;2023-07-31T07:50:55;1.35;;;0.40;;
45836;SDS011;31548;51.420;-0.040;2023-07-31T07:53:22;2.65;;;0.40;;
45836;SDS011;31548;51.420;-0.040;2023-07-31T07:55:50;0.80;;;0.30;;
45836;SDS011;31548;51.420;-0.040;2023-07-31T07:58:17;4.75;;;0.40;;
45836;SDS011;31548;51.420;-0.040;2023-07-31T08:00:48;4.97;;;0.40;;
45836;SDS011;31548;51.420;-0.040;2023-07-31T08:03:17;1.27;;;0.50;;
45836;SDS011;31548;51.420;-0.040;2023-07-31T08:05:45;0.65;;;0.25;;
45836;SDS011;31548;51.420;-0.040;2023-07-31T08:08:16;1.95;;;0.40;;
45836;SDS011;31548;51.420;-0.040;2023-07-31T08:10:44;4.68;;;0.40;;
45836;SDS011;31548;51.420;-0.040;2023-07-31T08:13:11;2.65;;;0.28;;
45836;SDS011;31548;51.420;-0.040;2023-07-31T08:15:40;2.05;;;0.45;;
45836;SDS011;31548;51.420;-0.040;2023-07-31T08:18:09;2.25;;;0.40;;
45836;SDS011;31548;51.420;-0.040;2023-07-31T08:20:40;6.15;;;0.95;;
45836;SDS011;31548;51.420;-0.040;2023-07-31T08:23:07;1.38;;;0.30;;
45836;SDS011;31548;51.420;-0.040;2023-07-31T08:25:35;1.58;;;0.40;;
45836;SDS011;31548;51.420;-0.040;2023-07-31T08:28:03;1.98;;;0.30;;
45836;SDS011;31548;51.420;-0.040;2023-07-31T08:30:32;2.80;;;0.50;;
45836;SDS011;31548;51.420;-0.040;2023-07-31T08:33:00;1.88;;;0.40;;
45836;SDS011;31548;51.420;-0.040;2023-07-31T08:35:27;0.28;;;0.25;;
45836;SDS011;31548;51.420;-0.040;2023-07-31T08:37:55;1.95;;;0.50;;
45836;SDS011;31548;51.420;-0.040;2023-07-31T08:40:22;1.30;;;0.40;;
45836;SDS011;31548;51.420;-0.040;2023-07-31T08:42:52;6.40;;;0.50;;
45836;SDS011;31548;51.420;-0.040;2023-07-31T08:45:20;3.33;;;0.63;;
45836;SDS011;31548;51.420;-0.040;2023-07-31T08:47:50;1.35;;;0.50;;
45836;SDS011;31548;51.420;-0.040;2023-07-31T08:50:19;1.60;;;0.50;;
45836;SDS011;31548;51.420;-0.040;2023-07-31T08:52:48;1.88;;;0.40;;
45836;SDS011;31548;51.420;-0.040;2023-07-31T08:55:17;3.05;;;0.40;;
45836;SDS011;31548;51.420;-0.040;2023-07-31T08:57:53;1.35;;;0.40;;
45836;SDS011;31548;51.420;-0.040;2023-07-31T09:00:21;1.90;;;0.47;;
45836;SDS011;31548;51.420;-0.040;2023-07-31T09:03:02;0.85;;;0.30;;
45836;SDS011;31548;51.420;-0.040;2023-07-31T09:05:36;1.58;;;0.30;;
45836;SDS011;31548;51.420;-0.040;2023-07-31T09:08:06;1.15;;;0.40;;
45836;SDS011;31548;51.420;-0.040;2023-07-31T09:10:35;3.80;;;0.50;;
45836;SDS011;31548;51.420;-0.040;2023-07-31T09:15:40;0.50;;;0.20;;
45836;SDS011;31548;51.420;-0.040;2023-07-31T09:18:12;1.77;;;0.40;;
45836;SDS011;31548;51.420;-0.040;2023-07-31T09:20:44;0.30;;;0.30;;
45836;SDS011;31548;51.420;-0.040;2023-07-31T09:23:12;1.85;;;0.30;;
45836;SDS011;31548;51.420;-0.040;2023-07-31T09:25:43;0.30;;;0.28;;
45836;SDS011;31548;51.420;-0.040;2023-07-31T09:28:11;1.80;;;0.30;;
45836;SDS011;31548;51.420;-0.040;2023-07-31T09:30:51;1.45;;;0.30;;
45836;SDS011;31548;51.420;-0.040;2023-07-31T09:33:19;0.60;;;0.20;;
45836;SDS011;31548;51.420;-0.040;2023-07-31T09:35:46;0.20;;;0.20;;
45836;SDS011;31548;51.420;-0.040;2023-07-31T09:38:17;1.10;;;0.38;;
45836;SDS011;31548;51.420;-0.040;2023-07-31T09:40:45;0.30;;;0.20;;
45836;SDS011;31548;51.420;-0.040;2023-07-31T09:43:17;0.45;;;0.20;;
45836;SDS011;31548;51.420;-0.040;2023-07-31T09:45:46;2.03;;;0.30;;
45836;SDS011;31548;51.420;-0.040;2023-07-31T09:48:17;0.20;;;0.20;;
45836;SDS011;31548;51.420;-0.040;2023-07-31T09:50:46;1.77;;;0.20;;
45836;SDS011;31548;51.420;-0.040;2023-07-31T09:53:15;0.63;;;0.30;;
45836;SDS011;31548;51.420;-0.040;2023-07-31T09:55:43;1.50;;;0.30;;
45836;SDS011;31548;51.420;-0.040;2023-07-31T09:58:11;0.60;;;0.40;;
45836;SDS011;31548;51.420;-0.040;2023-07-31T10:00:40;3.00;;;0.20;;
45836;SDS011;31548;51.420;-0.040;2023-07-31T10:03:08;0.22;;;0.10;;
45836;SDS011;31548;51.420;-0.040;2023-07-31T10:05:40;0.38;;;0.20;;
45836;SDS011;31548;51.420;-0.040;2023-07-31T10:08:13;1.20;;;0.25;;
45836;SDS011;31548;51.420;-0.040;2023-07-31T10:10:42;1.88;;;0.25;;
45836;SDS011;31548;51.420;-0.040;2023-07-31T10:13:10;0.40;;;0.20;;
45836;SDS011;31548;51.420;-0.040;2023-07-31T10:15:39;0.28;;;0.20;;
45836;SDS011;31548;51.420;-0.040;2023-07-31T10:18:10;2.58;;;0.50;;
45836;SDS011;31548;51.420;-0.040;2023-07-31T10:20:39;0.88;;;0.20;;
45836;SDS011;31548;51.420;-0.040;2023-07-31T10:23:07;0.63;;;0.20;;
45836;SDS011;31548;51.420;-0.040;2023-07-31T10:25:35;1.60;;;0.30;;
45836;SDS011;31548;51.420;-0.040;2023-07-31T10:28:03;1.13;;;0.30;;
45836;SDS011;31548;51.420;-0.040;2023-07-31T10:30:32;0.32;;;0.22;;
45836;SDS011;31548;51.420;-0.040;2023-07-31T10:33:04;2.38;;;0.30;;
45836;SDS011;31548;51.420;-0.040;2023-07-31T10:35:33;2.55;;;0.30;;
45836;SDS011;31548;51.420;-0.040;2023-07-31T10:38:18;1.23;;;0.30;;
45836;SDS011;31548;51.420;-0.040;2023-07-31T10:40:46;0.98;;;0.30;;
45836;SDS011;31548;51.420;-0.040;2023-07-31T10:43:25;0.80;;;0.50;;
45836;SDS011;31548;51.420;-0.040;2023-07-31T10:45:54;2.67;;;0.40;;
45836;SDS011;31548;51.420;-0.040;2023-07-31T10:48:21;3.90;;;0.40;;
45836;SDS011;31548;51.420;-0.040;2023-07-31T10:50:51;0.60;;;0.40;;
45836;SDS011;31548;51.420;-0.040;2023-07-31T10:55:52;1.48;;;0.40;;
45836;SDS011;31548;51.420;-0.040;2023-07-31T10:58:24;1.25;;;0.40;;
45836;SDS011;31548;51.420;-0.040;2023-07-31T11:00:54;3.63;;;0.57;;
45836;SDS011;31548;51.420;-0.040;2023-07-31T11:03:29;1.13;;;0.30;;
45836;SDS011;31548;51.420;-0.040;2023-07-31T11:06:07;3.08;;;0.30;;
45836;SDS011;31548;51.420;-0.040;2023-07-31T11:08:36;3.03;;;0.40;;
45836;SDS011;31548;51.420;-0.040;2023-07-31T11:11:15;1.05;;;0.40;;
45836;SDS011;31548;51.420;-0.040;2023-07-31T11:13:45;3.10;;;0.50;;
45836;SDS011;31548;51.420;-0.040;2023-07-31T11:16:17;1.38;;;0.40;;
45836;SDS011;31548;51.420;-0.040;2023-07-31T11:18:46;0.77;;;0.40;;
45836;SDS011;31548;51.420;-0.040;2023-07-31T11:21:16;0.82;;;0.50;;
45836;SDS011;31548;51.420;-0.040;2023-07-31T11:23:46;0.95;;;0.40;;
45836;SDS011;31548;51.420;-0.040;2023-07-31T11:26:18;0.45;;;0.22;;
45836;SDS011;31548;51.420;-0.040;2023-07-31T11:28:46;2.08;;;0.30;;
45836;SDS011;31548;51.420;-0.040;2023-07-31T11:31:14;2.08;;;0.50;;
45836;SDS011;31548;51.420;-0.040;2023-07-31T11:33:42;3.97;;;0.77;;
45836;SDS011;31548;51.420;-0.040;2023-07-31T11:36:14;3.40;;;0.40;;
45836;SDS011;31548;51.420;-0.040;2023-07-31T11:38:43;5.03;;;0.60;;
45836;SDS011;31548;51.420;-0.040;2023-07-31T11:41:10;6.80;;;0.80;;
45836;SDS011;31548;51.420;-0.040;2023-07-31T11:43:41;4.20;;;0.70;;
45836;SDS011;31548;51.420;-0.040;2023-07-31T11:46:09;5.68;;;0.70;;
45836;SDS011;31548;51.420;-0.040;2023-07-31T11:48:37;3.65;;;0.80;;
45836;SDS011;31548;51.420;-0.040;2023-07-31T11:51:05;3.85;;;1.10;;
45836;SDS011;31548;51.420;-0.040;2023-07-31T11:56:18;4.40;;;0.70;;
45836;SDS011;31548;51.420;-0.040;2023-07-31T11:58:48;3.25;;;0.63;;
45836;SDS011;31548;51.420;-0.040;2023-07-31T12:01:19;2.42;;;0.85;;
45836;SDS011;31548;51.420;-0.040;2023-07-31T12:03:51;1.85;;;1.00;;
45836;SDS011;31548;51.420;-0.040;2023-07-31T12:06:19;5.00;;;0.85;;
45836;SDS011;31548;51.420;-0.040;2023-07-31T12:08:48;3.80;;;0.90;;
45836;SDS011;31548;51.420;-0.040;2023-07-31T12:11:15;1.88;;;0.68;;
45836;SDS011;31548;51.420;-0.040;2023-07-31T12:13:44;4.07;;;0.77;;
45836;SDS011;31548;51.420;-0.040;2023-07-31T12:16:12;2.53;;;0.80;;
45836;SDS011;31548;51.420;-0.040;2023-07-31T12:18:39;1.60;;;0.65;;
45836;SDS011;31548;51.420;-0.040;2023-07-31T12:21:07;5.95;;;0.80;;
45836;SDS011;31548;51.420;-0.040;2023-07-31T12:23:36;2.63;;;0.70;;
45836;SDS011;31548;51.420;-0.040;2023-07-31T12:26:05;3.65;;;0.90;;
45836;SDS011;31548;51.420;-0.040;2023-07-31T12:28:38;4.30;;;0.70;;
45836;SDS011;31548;51.420;-0.040;2023-07-31T12:31:15;3.17;;;0.80;;
45836;SDS011;31548;51.420;-0.040;2023-07-31T12:33:44;3.22;;;0.70;;
45836;SDS011;31548;51.420;-0.040;2023-07-31T12:36:12;3.22;;;0.80;;
45836;SDS011;31548;51.420;-0.040;2023-07-31T12:38:41;1.45;;;0.60;;
45836;SDS011;31548;51.420;-0.040;2023-07-31T12:41:10;2.17;;;0.70;;
45836;SDS011;31548;51.420;-0.040;2023-07-31T12:43:38;4.25;;;0.68;;
45836;SDS011;31548;51.420;-0.040;2023-07-31T12:46:07;2.28;;;0.80;;
45836;SDS011;31548;51.420;-0.040;2023-07-31T12:48:35;3.80;;;0.63;;
45836;SDS011;31548;51.420;-0.040;2023-07-31T12:51:04;1.92;;;0.77;;
45836;SDS011;31548;51.420;-0.040;2023-07-31T12:53:33;6.07;;;0.98;;
45836;SDS011;31548;51.420;-0.040;2023-07-31T12:56:01;2.65;;;0.88;;
45836;SDS011;31548;51.420;-0.040;2023-07-31T12:58:28;2.92;;;0.75;;
45836;SDS011;31548;51.420;-0.040;2023-07-31T13:00:56;6.38;;;0.90;;
45836;SDS011;31548;51.420;-0.040;2023-07-31T13:03:23;3.78;;;0.90;;
45836;SDS011;31548;51.420;-0.040;2023-07-31T13:05:51;3.63;;;0.98;;
45836;SDS011;31548;51.420;-0.040;2023-07-31T13:08:19;5.57;;;1.15;;
45836;SDS011;31548;51.420;-0.040;2023-07-31T13:10:47;4.15;;;0.98;;
45836;SDS011;31548;51.420;-0.040;2023-07-31T13:13:14;4.47;;;0.95;;
45836;SDS011;31548;51.420;-0.040;2023-07-31T13:15:43;3.50;;;1.05;;
45836;SDS011;31548;51.420;-0.040;2023-07-31T13:18:12;5.18;;;1.83;;
45836;SDS011;31548;51.420;-0.040;2023-07-31T13:20:39;3.25;;;1.02;;
45836;SDS011;31548;51.420;-0.040;2023-07-31T13:23:07;5.90;;;0.93;;
45836;SDS011;31548;51.420;-0.040;2023-07-31T13:25:34;7.28;;;1.17;;
45836;SDS011;31548;51.420;-0.040;2023-07-31T13:28:01;9.27;;;1.23;;
45836;SDS011;31548;51.420;-0.040;2023-07-31T13:30:29;7.38;;;1.65;;
45836;SDS011;31548;51.420;-0.040;2023-07-31T13:32:57;4.63;;;1.45;;
45836;SDS011;31548;51.420;-0.040;2023-07-31T13:35:24;4.68;;;1.83;;
45836;SDS011;31548;51.420;-0.040;2023-07-31T13:37:51;5.68;;;1.00;;
45836;SDS011;31548;51.420;-0.040;2023-07-31T13:40:19;4.07;;;1.00;;
45836;SDS011;31548;51.420;-0.040;2023-07-31T13:42:46;4.00;;;1.15;;
45836;SDS011;31548;51.420;-0.040;2023-07-31T13:45:15;9.38;;;1.10;;
45836;SDS011;31548;51.420;-0.040;2023-07-31T13:47:42;5.78;;;1.55;;
45836;SDS011;31548;51.420;-0.040;2023-07-31T13:50:09;9.65;;;1.50;;
45836;SDS011;31548;51.420;-0.040;2023-07-31T13:52:37;8.45;;;1.95;;
45836;SDS011;31548;51.420;-0.040;2023-07-31T13:55:04;6.95;;;1.45;;
45836;SDS011;31548;51.420;-0.040;2023-07-31T13:57:32;9.98;;;1.30;;
45836;SDS011;31548;51.420;-0.040;2023-07-31T13:59:59;5.10;;;1.10;;
45836;SDS011;31548;51.420;-0.040;2023-07-31T14:02:30;7.22;;;1.80;;
45836;SDS011;31548;51.420;-0.040;2023-07-31T14:04:58;6.00;;;1.75;;
45836;SDS011;31548;51.420;-0.040;2023-07-31T14:07:25;9.32;;;1.52;;
45836;SDS011;31548;51.420;-0.040;2023-07-31T14:09:53;11.00;;;2.15;;
45836;SDS011;31548;51.420;-0.040;2023-07-31T14:12:20;7.47;;;2.10;;
45836;SDS011;31548;51.420;-0.040;2023-07-31T14:15:08;6.30;;;1.67;;
45836;SDS011;31548;51.420;-0.040;2023-07-31T14:17:36;6.72;;;1.88;;
45836;SDS011;31548;51.420;-0.040;2023-07-31T14:20:04;4.13;;;1.70;;
45836;SDS011;31548;51.420;-0.040;2023-07-31T14:22:32;4.68;;;1.60;;
45836;SDS011;31548;51.420;-0.040;2023-07-31T14:25:01;11.02;;;2.20;;
45836;SDS011;31548;51.420;-0.040;2023-07-31T14:27:28;7.30;;;1.92;;
45836;SDS011;31548;51.420;-0.040;2023-07-31T14:29:56;7.07;;;1.73;;
45836;SDS011;31548;51.420;-0.040;2023-07-31T14:32:23;8.80;;;2.20;;
45836;SDS011;31548;51.420;-0.040;2023-07-31T14:34:52;6.55;;;2.35;;
45836;SDS011;31548;51.420;-0.040;2023-07-31T14:37:21;7.38;;;2.05;;
45836;SDS011;31548;51.420;-0.040;2023-07-31T14:39:48;9.93;;;2.15;;
45836;SDS011;31548;51.420;-0.040;2023-07-31T14:42:17;7.25;;;1.67;;
45836;SDS011;31548;51.420;-0.040;2023-07-31T14:44:46;3.65;;;1.30;;
45836;SDS011;31548;51.420;-0.040;2023-07-31T14:47:14;6.68;;;2.10;;
45836;SDS011;31548;51.420;-0.040;2023-07-31T14:49:41;4.57;;;1.50;;
45836;SDS011;31548;51.420;-0.040;2023-07-31T14:52:09;6.38;;;1.67;;
45836;SDS011;31548;51.420;-0.040;2023-07-31T14:54:36;4.47;;;1.60;;
45836;SDS011;31548;51.420;-0.040;2023-07-31T14:57:04;7.97;;;2.08;;
45836;SDS011;31548;51.420;-0.040;2023-07-31T14:59:31;6.18;;;1.58;;